createdAt,value
2018-09-19T00:00:44.436Z,34.54
2018-09-19T00:03:20.467Z,34.67
2018-09-19T00:05:56.436Z,34.49
2018-09-19T00:08:32.560Z,34.33
2018-09-19T00:11:08.776Z,34.15
2018-09-19T00:13:44.614Z,34.13
2018-09-19T00:16:20.627Z,34.77
2018-09-19T00:18:57.261Z,33.96
2018-09-19T00:21:34.276Z,35.20
2018-09-19T00:24:11.618Z,34.88
2018-09-19T00:26:50.457Z,35.03
2018-09-19T00:29:26.851Z,34.55
2018-09-19T00:32:02.450Z,34.07
2018-09-19T00:34:38.463Z,33.98
2018-09-19T00:37:14.630Z,34.82
2018-09-19T00:39:51.169Z,35.39
2018-09-19T00:42:27.314Z,34.88
2018-09-19T00:47:58.433Z,35.32
2018-09-19T00:50:34.418Z,34.95
2018-09-19T00:53:10.339Z,34.60
2018-09-19T00:55:46.406Z,35.28
2018-09-19T00:58:22.789Z,33.95
2018-09-19T01:00:58.883Z,35.22
2018-09-19T01:03:35.898Z,34.13
2018-09-19T01:06:12.324Z,34.62
2018-09-19T01:08:50.116Z,34.13
2018-09-19T01:11:28.233Z,34.11
2018-09-19T01:14:04.618Z,34.72
2018-09-19T01:16:40.637Z,34.96
2018-09-19T01:19:16.627Z,34.40
2018-09-19T01:21:52.661Z,34.76
2018-09-19T01:24:28.648Z,34.97
2018-09-19T01:27:04.093Z,34.86
2018-09-19T01:29:39.461Z,34.79
2018-09-19T01:32:14.643Z,34.06
2018-09-19T01:34:50.113Z,34.29
2018-09-19T01:37:26.295Z,35.21
2018-09-19T01:40:01.668Z,34.66
2018-09-19T01:42:35.289Z,35.14
2018-09-19T01:45:10.496Z,34.39
2018-09-19T01:47:46.126Z,34.34
2018-09-19T01:50:21.487Z,35.22
2018-09-19T01:52:57.128Z,35.22
2018-09-19T01:55:32.658Z,35.25
2018-09-19T01:58:07.890Z,34.90
2018-09-19T02:00:43.657Z,34.81
2018-09-19T02:03:19.232Z,34.12
2018-09-19T02:05:55.089Z,34.27
2018-09-19T02:08:31.110Z,34.89
2018-09-19T02:11:07.281Z,34.80
2018-09-19T02:13:42.863Z,34.20
2018-09-19T02:16:19.241Z,34.84
2018-09-19T02:18:55.278Z,34.62
2018-09-19T02:21:31.106Z,35.11
2018-09-19T02:24:06.456Z,35.20
2018-09-19T02:26:42.193Z,35.20
2018-09-19T02:29:17.658Z,34.87
2018-09-19T02:31:53.309Z,34.56
2018-09-19T02:34:28.618Z,34.21
2018-09-19T02:37:04.157Z,34.68
2018-09-19T02:39:39.489Z,34.63
2018-09-19T02:42:14.862Z,34.11
2018-09-19T02:44:50.321Z,34.50
2018-09-19T02:47:26.221Z,34.39
2018-09-19T02:50:01.846Z,34.70
2018-09-19T02:52:37.466Z,34.92
2018-09-19T02:55:13.157Z,35.22
2018-09-19T02:57:48.492Z,34.65
2018-09-19T03:00:23.893Z,34.79
2018-09-19T03:02:59.497Z,34.55
2018-09-19T03:05:35.066Z,35.14
2018-09-19T03:08:10.525Z,34.55
2018-09-19T03:10:46.140Z,34.97
2018-09-19T03:13:22.459Z,34.64
2018-09-19T03:15:58.205Z,34.86
2018-09-19T03:18:33.864Z,34.18
2018-09-19T03:21:09.486Z,34.39
2018-09-19T03:23:44.863Z,34.67
2018-09-19T03:26:20.533Z,35.00
2018-09-19T03:28:55.893Z,33.99
2018-09-19T03:31:31.521Z,35.26
2018-09-19T03:34:06.899Z,34.54
2018-09-19T03:36:42.265Z,34.56
2018-09-19T03:39:17.737Z,34.69
2018-09-19T03:41:53.523Z,35.35
2018-09-19T03:44:28.861Z,34.25
2018-09-19T03:47:04.441Z,34.66
2018-09-19T03:49:40.147Z,34.28
2018-09-19T03:52:15.689Z,34.53
2018-09-19T03:54:51.516Z,34.74
2018-09-19T03:57:26.951Z,34.82
2018-09-19T04:00:02.716Z,34.84
2018-09-19T04:02:38.399Z,34.41
2018-09-19T04:05:14.273Z,34.54
2018-09-19T04:07:49.900Z,35.06
2018-09-19T04:10:25.273Z,35.86
2018-09-19T04:13:00.908Z,35.37
2018-09-19T04:15:36.735Z,35.64
2018-09-19T04:18:12.160Z,34.81
2018-09-19T04:20:47.693Z,35.52
2018-09-19T04:23:23.094Z,35.40
2018-09-19T04:25:58.408Z,35.32
2018-09-19T04:28:35.069Z,34.83
2018-09-19T04:31:10.653Z,35.51
2018-09-19T04:33:46.357Z,36.14
2018-09-19T04:36:21.720Z,36.25
2018-09-19T04:38:57.183Z,35.47
2018-09-19T04:41:32.716Z,36.21
2018-09-19T04:44:08.284Z,35.72
2018-09-19T04:46:44.166Z,36.10
2018-09-19T04:49:19.759Z,35.86
2018-09-19T04:51:55.711Z,35.23
2018-09-19T04:54:31.757Z,35.32
2018-09-19T04:57:07.706Z,35.88
2018-09-19T04:59:43.717Z,35.48
2018-09-19T05:02:19.552Z,35.75
2018-09-19T05:04:55.547Z,35.64
2018-09-19T05:07:31.664Z,35.56
2018-09-19T05:10:07.572Z,35.87
2018-09-19T05:12:43.713Z,36.51
2018-09-19T05:15:19.734Z,36.22
2018-09-19T05:17:55.748Z,36.25
2018-09-19T05:20:31.728Z,36.61
2018-09-19T05:23:07.899Z,36.16
2018-09-19T05:25:43.716Z,37.11
2018-09-19T05:28:20.518Z,37.37
2018-09-19T05:30:56.321Z,36.68
2018-09-19T05:33:32.345Z,36.61
2018-09-19T05:36:08.336Z,37.29
2018-09-19T05:38:44.550Z,37.71
2018-09-19T05:41:21.322Z,36.91
2018-09-19T05:43:57.252Z,37.00
2018-09-19T05:46:33.214Z,37.75
2018-09-19T05:49:09.393Z,37.73
2018-09-19T05:51:45.552Z,37.84
2018-09-19T05:54:21.611Z,38.62
2018-09-19T05:56:57.348Z,38.12
2018-09-19T05:59:33.394Z,37.95
2018-09-19T06:02:09.198Z,38.84
2018-09-19T06:04:45.391Z,38.53
2018-09-19T06:07:21.203Z,38.68
2018-09-19T06:09:57.401Z,39.41
2018-09-19T06:12:33.192Z,38.43
2018-09-19T06:15:09.567Z,39.13
2018-09-19T06:17:45.737Z,39.52
2018-09-19T06:20:21.848Z,39.02
2018-09-19T06:22:58.202Z,38.56
2018-09-19T06:25:34.229Z,38.75
2018-09-19T06:28:10.371Z,39.33
2018-09-19T06:30:46.389Z,39.46
2018-09-19T06:33:22.563Z,39.71
2018-09-19T06:35:58.386Z,40.13
2018-09-19T06:38:34.601Z,38.97
2018-09-19T06:41:10.463Z,39.62
2018-09-19T06:43:47.005Z,39.60
2018-09-19T06:46:23.481Z,39.89
2018-09-19T06:48:59.471Z,40.09
2018-09-19T06:51:35.568Z,39.36
2018-09-19T06:54:11.576Z,39.94
2018-09-19T06:56:47.578Z,39.72
2018-09-19T06:59:23.562Z,39.22
2018-09-19T07:01:59.578Z,39.83
2018-09-19T07:04:35.553Z,39.00
2018-09-19T07:07:11.577Z,39.75
2018-09-19T07:09:47.577Z,39.33
2018-09-19T07:12:23.484Z,40.07
2018-09-19T07:14:59.309Z,39.41
2018-09-19T07:17:35.550Z,39.37
2018-09-19T07:20:11.582Z,40.18
2018-09-19T07:22:47.577Z,39.22
2018-09-19T07:25:23.713Z,39.38
2018-09-19T07:27:59.585Z,39.09
2018-09-19T07:30:35.593Z,39.31
2018-09-19T07:33:11.490Z,39.83
2018-09-19T07:35:47.689Z,39.44
2018-09-19T07:38:23.483Z,38.94
2018-09-19T07:40:59.523Z,38.89
2018-09-19T07:43:35.922Z,39.54
2018-09-19T07:46:11.972Z,39.96
2018-09-19T07:48:47.935Z,39.27
2018-09-19T07:51:23.955Z,39.36
2018-09-19T07:53:59.796Z,39.64
2018-09-19T07:56:35.506Z,38.80
2018-09-19T07:59:11.928Z,39.32
2018-09-19T08:01:47.942Z,39.39
2018-09-19T08:04:23.588Z,39.58
2018-09-19T08:06:59.507Z,39.37
2018-09-19T08:09:35.590Z,39.58
2018-09-19T08:12:11.573Z,38.60
2018-09-19T08:14:47.603Z,39.74
2018-09-19T08:17:23.511Z,39.49
2018-09-19T08:19:59.775Z,39.24
2018-09-19T08:22:35.660Z,38.48
2018-09-19T08:25:11.809Z,39.14
2018-09-19T08:27:47.601Z,38.96
2018-09-19T08:30:23.606Z,39.15
2018-09-19T08:32:59.527Z,38.56
2018-09-19T08:35:35.512Z,39.70
2018-09-19T08:38:11.602Z,39.74
2018-09-19T08:40:47.477Z,39.81
2018-09-19T08:43:23.513Z,39.15
2018-09-19T08:45:59.860Z,39.23
2018-09-19T08:48:35.591Z,38.90
2018-09-19T08:51:11.526Z,39.32
2018-09-19T08:53:47.625Z,39.38
2018-09-19T08:56:23.787Z,38.86
2018-09-19T08:58:59.615Z,38.83
2018-09-19T09:01:35.617Z,38.55
2018-09-19T09:04:11.606Z,39.29
2018-09-19T09:06:47.616Z,39.54
2018-09-19T09:09:23.609Z,39.08
2018-09-19T09:12:00.436Z,39.29
2018-09-19T09:14:36.425Z,39.66
2018-09-19T09:17:12.050Z,38.49
2018-09-19T09:19:48.470Z,39.16
2018-09-19T09:22:24.622Z,39.23
2018-09-19T09:25:00.503Z,39.04
2018-09-19T09:27:37.299Z,39.78
2018-09-19T09:30:13.803Z,38.45
2018-09-19T09:32:49.798Z,39.42
2018-09-19T09:35:25.597Z,38.95
2018-09-19T09:38:01.811Z,38.83
2018-09-19T09:40:37.871Z,39.73
2018-09-19T09:43:14.246Z,38.34
2018-09-19T09:45:48.142Z,39.31
2018-09-19T09:48:23.810Z,38.80
2018-09-19T09:50:59.523Z,39.64
2018-09-19T09:53:35.645Z,39.29
2018-09-19T09:56:11.618Z,39.44
2018-09-19T09:58:47.513Z,38.36
2018-09-19T10:01:23.517Z,39.19
2018-09-19T10:03:59.633Z,39.03
2018-09-19T10:06:35.533Z,39.48
2018-09-19T10:09:13.773Z,39.69
2018-09-19T10:11:49.986Z,38.89
2018-09-19T10:14:26.452Z,38.99
2018-09-19T10:17:02.646Z,38.46
2018-09-19T10:19:39.258Z,38.92
2018-09-19T10:22:15.325Z,39.52
2018-09-19T10:24:51.304Z,39.33
2018-09-19T10:27:27.269Z,39.21
2018-09-19T10:30:03.864Z,38.47
2018-09-19T10:32:39.633Z,38.58
2018-09-19T10:35:15.661Z,39.05
2018-09-19T10:37:51.657Z,38.65
2018-09-19T10:40:27.601Z,38.97
2018-09-19T10:43:03.830Z,39.09
2018-09-19T10:45:39.655Z,39.57
2018-09-19T10:48:15.825Z,38.85
2018-09-19T10:50:51.538Z,39.58
2018-09-19T10:53:27.502Z,38.79
2018-09-19T10:56:03.619Z,39.34
2018-09-19T10:58:39.650Z,38.89
2018-09-19T11:01:15.996Z,38.79
2018-09-19T11:03:51.994Z,38.92
2018-09-19T11:06:27.830Z,38.74
2018-09-19T11:09:04.011Z,38.68
2018-09-19T11:11:40.465Z,38.38
2018-09-19T11:14:16.273Z,38.06
2018-09-19T11:16:52.414Z,39.35
2018-09-19T11:19:28.438Z,38.48
2018-09-19T11:22:04.894Z,38.78
2018-09-19T11:24:40.830Z,38.59
2018-09-19T11:27:16.826Z,38.26
2018-09-19T11:29:52.833Z,38.59
2018-09-19T11:32:28.494Z,39.19
2018-09-19T11:35:04.592Z,38.80
2018-09-19T11:37:40.642Z,38.18
2018-09-19T11:40:16.485Z,38.82
2018-09-19T11:42:52.567Z,38.57
2018-09-19T11:45:28.617Z,38.30
2018-09-19T11:48:04.574Z,37.99
2018-09-19T11:50:40.605Z,39.21
2018-09-19T11:53:20.796Z,38.22
2018-09-19T11:55:56.671Z,38.60
2018-09-19T11:58:33.013Z,38.70
2018-09-19T12:01:09.673Z,38.57
2018-09-19T12:03:45.670Z,37.87
2018-09-19T12:06:21.674Z,39.03
2018-09-19T12:08:57.665Z,38.27
2018-09-19T12:11:33.594Z,38.52
2018-09-19T12:14:09.697Z,38.42
2018-09-19T12:16:45.685Z,38.24
2018-09-19T12:19:21.738Z,39.12
2018-09-19T12:21:57.657Z,37.89
2018-09-19T12:24:33.961Z,37.67
2018-09-19T12:27:09.863Z,38.03
2018-09-19T12:29:46.425Z,38.89
2018-09-19T12:32:22.709Z,38.32
2018-09-19T12:34:58.526Z,38.27
2018-09-19T12:37:34.613Z,38.54
2018-09-19T12:40:10.870Z,38.85
2018-09-19T12:42:46.659Z,37.95
2018-09-19T12:45:22.878Z,38.06
2018-09-19T12:47:59.638Z,37.71
2018-09-19T12:50:35.917Z,38.51
2018-09-19T12:53:11.702Z,38.62
2018-09-19T12:55:48.022Z,38.28
2018-09-19T12:58:24.055Z,38.41
2018-09-19T13:01:00.305Z,38.40
2018-09-19T13:03:36.465Z,38.39
2018-09-19T13:06:13.494Z,37.61
2018-09-19T13:08:51.009Z,38.76
2018-09-19T13:11:27.373Z,38.02
2018-09-19T13:14:03.323Z,38.35
2018-09-19T13:16:39.318Z,38.79
2018-09-19T13:19:15.330Z,38.32
2018-09-19T13:21:51.319Z,37.98
2018-09-19T13:24:27.319Z,37.93
2018-09-19T13:27:03.358Z,38.31
2018-09-19T13:29:39.535Z,38.31
2018-09-19T13:32:15.605Z,38.35
2018-09-19T13:34:51.689Z,37.96
2018-09-19T13:37:27.710Z,37.78
2018-09-19T13:40:03.987Z,37.99
2018-09-19T13:42:40.655Z,37.57
2018-09-19T13:45:16.702Z,37.88
2018-09-19T13:47:52.903Z,37.66
2018-09-19T13:50:54.714Z,37.80
2018-09-19T13:53:30.886Z,38.35
2018-09-19T13:56:07.374Z,37.68
2018-09-19T13:58:43.499Z,38.08
2018-09-19T14:01:19.897Z,38.54
2018-09-19T14:03:55.889Z,38.00
2018-09-19T14:06:31.911Z,37.27
2018-09-19T14:09:10.005Z,38.33
2018-09-19T14:11:45.746Z,37.78
2018-09-19T14:14:21.725Z,37.13
2018-09-19T14:16:57.611Z,38.51
2018-09-19T14:19:33.555Z,37.78
2018-09-19T14:22:09.702Z,38.44
2018-09-19T14:24:45.725Z,37.85
2018-09-19T14:27:21.635Z,37.34
2018-09-19T14:29:57.530Z,37.02
2018-09-19T14:32:33.638Z,38.13
2018-09-19T14:35:09.898Z,36.84
2018-09-19T14:37:45.901Z,37.60
2018-09-19T14:40:21.735Z,37.66
2018-09-19T14:42:57.918Z,36.94
2018-09-19T14:45:34.019Z,37.58
2018-09-19T14:48:10.131Z,36.96
2018-09-19T14:50:46.434Z,37.12
2018-09-19T14:53:22.623Z,36.24
2018-09-19T14:55:58.920Z,37.26
2018-09-19T14:58:35.116Z,36.94
2018-09-19T15:01:11.341Z,36.72
2018-09-19T15:03:47.349Z,36.94
2018-09-19T15:06:22.899Z,36.48
2018-09-19T15:08:58.567Z,35.83
2018-09-19T15:11:34.900Z,36.57
2018-09-19T15:14:10.682Z,36.44
2018-09-19T15:16:46.713Z,35.81
2018-09-19T15:19:22.605Z,36.27
2018-09-19T15:21:58.744Z,36.54
2018-09-19T15:24:34.691Z,35.86
2018-09-19T15:27:11.115Z,36.23
2018-09-19T15:29:47.695Z,36.36
2018-09-19T15:32:24.449Z,36.74
2018-09-19T15:35:00.736Z,35.41
2018-09-19T15:37:36.581Z,35.85
2018-09-19T15:40:12.553Z,36.68
2018-09-19T15:42:48.338Z,36.27
2018-09-19T15:45:24.637Z,35.75
2018-09-19T15:48:00.744Z,36.03
2018-09-19T15:50:36.941Z,35.67
2018-09-19T15:53:12.781Z,35.92
2018-09-19T15:55:48.740Z,36.78
2018-09-19T15:58:24.922Z,36.91
2018-09-19T16:01:01.190Z,36.73
2018-09-19T16:03:37.933Z,36.12
2018-09-19T16:06:13.980Z,35.37
2018-09-19T16:08:49.946Z,35.68
2018-09-19T16:11:25.936Z,35.51
2018-09-19T16:14:02.001Z,36.90
2018-09-19T16:16:37.551Z,36.25
2018-09-19T16:19:13.149Z,36.06
2018-09-19T16:21:48.762Z,36.64
2018-09-19T16:24:24.467Z,36.31
2018-09-19T16:27:00.121Z,36.25
2018-09-19T16:29:35.760Z,36.56
2018-09-19T16:32:11.154Z,35.56
2018-09-19T16:34:46.702Z,36.12
2018-09-19T16:37:22.381Z,36.04
2018-09-19T16:39:57.942Z,36.69
2018-09-19T16:42:33.679Z,35.53
2018-09-19T16:45:08.943Z,36.78
2018-09-19T16:47:44.624Z,35.61
2018-09-19T16:50:20.462Z,36.31
2018-09-19T16:52:56.698Z,37.15
2018-09-19T16:55:32.642Z,36.81
2018-09-19T16:58:08.781Z,37.49
2018-09-19T17:00:44.777Z,37.31
2018-09-19T17:03:20.416Z,37.21
2018-09-19T17:05:56.586Z,37.05
2018-09-19T17:08:31.973Z,37.54
2018-09-19T17:11:07.495Z,37.43
2018-09-19T17:13:42.751Z,36.93
2018-09-19T17:16:18.757Z,37.56
2018-09-19T17:18:54.409Z,37.60
2018-09-19T17:21:30.572Z,37.03
2018-09-19T17:24:05.998Z,37.39
2018-09-19T17:26:41.677Z,37.63
2018-09-19T17:29:17.224Z,36.29
2018-09-19T17:31:52.946Z,37.02
2018-09-19T17:34:29.955Z,37.51
2018-09-19T17:37:05.692Z,37.31
2018-09-19T17:39:41.696Z,37.20
2018-09-19T17:42:17.513Z,36.97
2018-09-19T17:44:53.282Z,36.12
2018-09-19T17:47:28.909Z,37.02
2018-09-19T17:50:04.819Z,37.14
2018-09-19T17:52:40.804Z,37.19
2018-09-19T17:55:16.610Z,36.36
2018-09-19T17:57:52.750Z,36.43
2018-09-19T18:00:28.709Z,36.12
2018-09-19T18:03:04.718Z,36.26
2018-09-19T18:05:41.325Z,37.20
2018-09-19T18:08:17.625Z,36.72
2018-09-19T18:10:53.684Z,36.65
2018-09-19T18:13:29.711Z,36.03
2018-09-19T18:16:05.798Z,36.02
2018-09-19T18:18:41.721Z,36.43
2018-09-19T18:21:17.795Z,36.52
2018-09-19T18:23:54.358Z,36.71
2018-09-19T18:26:29.774Z,36.92
2018-09-19T18:29:05.707Z,37.06
2018-09-19T18:31:41.697Z,36.45
2018-09-19T18:34:18.018Z,36.71
2018-09-19T18:36:53.777Z,35.83
2018-09-19T18:39:29.712Z,36.48
2018-09-19T18:42:05.787Z,35.78
2018-09-19T18:44:41.926Z,35.96
2018-09-19T18:47:17.684Z,35.61
2018-09-19T18:49:54.260Z,36.79
2018-09-19T18:52:30.624Z,35.44
2018-09-19T18:55:06.801Z,35.55
2018-09-19T18:57:42.610Z,36.25
2018-09-19T19:00:18.807Z,36.05
2018-09-19T19:02:54.983Z,35.46
2018-09-19T19:05:30.989Z,36.60
2018-09-19T19:08:06.990Z,35.70
2018-09-19T19:10:42.987Z,36.53
2018-09-19T19:13:19.323Z,35.26
2018-09-19T19:15:55.464Z,35.84
2018-09-19T19:18:31.818Z,35.70
2018-09-19T19:21:07.813Z,35.63
2018-09-19T19:23:43.990Z,35.91
2018-09-19T19:26:19.993Z,36.36
2018-09-19T19:28:55.991Z,35.12
2018-09-19T19:31:32.214Z,35.75
2018-09-19T19:34:08.183Z,36.43
2018-09-19T19:36:44.197Z,35.07
2018-09-19T19:39:19.990Z,35.30
2018-09-19T19:41:55.944Z,35.46
2018-09-19T19:44:32.572Z,35.05
2018-09-19T19:47:08.622Z,35.63
2018-09-19T19:49:44.801Z,34.94
2018-09-19T19:52:20.829Z,35.57
2018-09-19T19:54:56.821Z,35.79
2018-09-19T19:57:32.644Z,36.08
2018-09-19T20:00:08.833Z,35.09
2018-09-19T20:02:44.871Z,35.52
2018-09-19T20:05:20.953Z,34.98
2018-09-19T20:07:56.858Z,34.63
2018-09-19T20:10:32.689Z,35.84
2018-09-19T20:13:09.539Z,35.33
2018-09-19T20:18:43.806Z,35.61
2018-09-19T20:21:20.242Z,35.22
2018-09-19T20:23:56.621Z,35.12
2018-09-19T20:26:32.622Z,34.79
2018-09-19T20:29:08.848Z,35.65
2018-09-19T20:31:44.822Z,34.87
2018-09-19T20:34:20.940Z,34.53
2018-09-19T20:36:57.575Z,34.85
2018-09-19T20:39:33.683Z,35.78
2018-09-19T20:42:09.674Z,35.21
2018-09-19T20:44:45.837Z,35.83
2018-09-19T20:47:21.689Z,34.61
2018-09-19T20:49:57.843Z,35.16
2018-09-19T20:52:34.021Z,35.18
2018-09-19T20:55:09.953Z,34.56
2018-09-19T20:57:45.842Z,34.54
2018-09-19T21:00:21.672Z,35.89
2018-09-19T21:02:57.830Z,35.87
2018-09-19T21:05:34.124Z,34.93
2018-09-19T21:08:10.026Z,35.86
2018-09-19T21:10:46.129Z,35.39
2018-09-19T21:13:22.193Z,35.16
2018-09-19T21:15:58.251Z,34.87
2018-09-19T21:18:33.877Z,34.32
2018-09-19T21:21:09.497Z,34.08
2018-09-19T21:23:45.029Z,34.75
2018-09-19T21:26:20.301Z,34.72
2018-09-19T21:28:55.896Z,34.29
2018-09-19T21:31:31.515Z,34.68
2018-09-19T21:34:07.231Z,34.77
2018-09-19T21:36:42.862Z,34.87
2018-09-19T21:39:18.601Z,34.83
2018-09-19T21:41:54.185Z,34.93
2018-09-19T21:44:29.786Z,35.39
2018-09-19T21:47:05.044Z,34.86
2018-09-19T21:49:40.345Z,35.48
2018-09-19T21:52:15.865Z,35.10
2018-09-19T21:54:51.239Z,35.14
2018-09-19T21:57:27.215Z,35.18
2018-09-19T22:00:02.732Z,35.45
2018-09-19T22:03:44.407Z,35.68
2018-09-19T22:06:17.991Z,35.32
2018-09-19T22:08:53.329Z,34.78
2018-09-19T22:11:28.801Z,35.41
2018-09-19T22:14:04.253Z,35.51
2018-09-19T22:16:39.877Z,35.67
2018-09-19T22:19:15.374Z,35.23
2018-09-19T22:21:51.044Z,34.97
2018-09-19T22:24:26.228Z,35.31
2018-09-19T22:27:02.050Z,35.62
2018-09-19T22:29:37.617Z,35.58
2018-09-19T22:32:13.226Z,35.44
2018-09-19T22:34:48.575Z,34.92
2018-09-19T22:37:25.055Z,35.56
2018-09-19T22:40:00.252Z,36.27
2018-09-19T22:42:35.784Z,35.03
2018-09-19T22:45:11.235Z,36.26
2018-09-19T22:47:47.274Z,35.52
2018-09-19T22:50:23.117Z,35.61
2018-09-19T22:52:58.607Z,36.27
2018-09-19T22:55:33.878Z,35.71
2018-09-19T22:58:09.306Z,36.33
2018-09-19T23:00:44.892Z,35.43
2018-09-19T23:03:21.073Z,35.80
2018-09-19T23:05:56.682Z,35.72
2018-09-19T23:08:32.702Z,36.08
2018-09-19T23:11:08.917Z,35.63
2018-09-19T23:13:45.062Z,36.36
2018-09-19T23:16:20.902Z,35.57
2018-09-19T23:18:56.794Z,35.69
2018-09-19T23:21:32.744Z,35.75
2018-09-19T23:24:08.557Z,35.81
2018-09-19T23:26:44.702Z,35.13
2018-09-19T23:29:21.163Z,36.49
2018-09-19T23:31:57.094Z,36.41
2018-09-19T23:34:33.654Z,35.59
2018-09-19T23:37:09.717Z,35.94
2018-09-19T23:39:45.874Z,35.67
2018-09-19T23:42:21.882Z,36.41
2018-09-19T23:44:59.058Z,35.30
2018-09-19T23:47:36.238Z,35.25
2018-09-19T23:50:12.271Z,35.97
2018-09-19T23:52:48.246Z,35.61
2018-09-19T23:55:24.902Z,36.61
2018-09-19T23:58:01.239Z,36.08
